Baie-Trinite, Canada
Current Conditions -  °F | °C
As of 2:00 PM on Saturday 25 Oct 2014 (Local Time) from CYBC Reporting Station
Clear Clear  
Wind Chill: 35°   Ceiling: Unl
Heat Index: 43°   Visibility: 9mi
Dew Point: 37°   Wind: 17mph
Humidity: 81%   Direction: 90°E
Pressure: 29.62"   Gusts: 24mph
Location:  49.43°N, 67.28°W
Report Text: CYBC 251800Z AUTO 09015G21KT 9SM CLR 06/03 A2962 RMK SLP030
Loading
Personal Weather Stations






























Interactive Weather Map
Tropical Storm Tracking
New forecast layout! Learn more

10-Day Weather Forecast

Advertisements
Track Severe Weather on mobile